sensor_id;sensor_type;location;lat;lon;timestamp;P1;durP1;ratioP1;P2;durP2;ratioP2
66974;SDS011;53903;51.464;-2.584;2022-11-06T00:00:15;30.95;;;15.02;;
66974;SDS011;53903;51.464;-2.584;2022-11-06T00:02:41;35.65;;;14.48;;
66974;SDS011;53903;51.464;-2.584;2022-11-06T00:05:07;1.25;;;1.02;;
66974;SDS011;53903;51.464;-2.584;2022-11-06T00:07:51;2.95;;;2.08;;
66974;SDS011;53903;51.464;-2.584;2022-11-06T00:10:16;17.67;;;9.27;;
66974;SDS011;53903;51.464;-2.584;2022-11-06T00:12:42;39.30;;;17.00;;
66974;SDS011;53903;51.464;-2.584;2022-11-06T00:15:08;53.95;;;21.13;;
66974;SDS011;53903;51.464;-2.584;2022-11-06T00:17:34;52.22;;;20.58;;
66974;SDS011;53903;51.464;-2.584;2022-11-06T00:20:00;97.78;;;46.58;;
66974;SDS011;53903;51.464;-2.584;2022-11-06T00:22:25;166.93;;;70.50;;
66974;SDS011;53903;51.464;-2.584;2022-11-06T00:24:51;131.93;;;51.25;;
66974;SDS011;53903;51.464;-2.584;2022-11-06T00:27:17;93.45;;;39.30;;
66974;SDS011;53903;51.464;-2.584;2022-11-06T00:29:42;73.13;;;32.15;;
66974;SDS011;53903;51.464;-2.584;2022-11-06T00:32:07;93.43;;;40.85;;
66974;SDS011;53903;51.464;-2.584;2022-11-06T00:34:33;82.30;;;34.10;;
66974;SDS011;53903;51.464;-2.584;2022-11-06T00:36:58;108.43;;;41.28;;
66974;SDS011;53903;51.464;-2.584;2022-11-06T00:39:24;80.70;;;34.70;;
66974;SDS011;53903;51.464;-2.584;2022-11-06T00:41:49;66.82;;;30.33;;
66974;SDS011;53903;51.464;-2.584;2022-11-06T00:44:14;40.55;;;15.95;;
66974;SDS011;53903;51.464;-2.584;2022-11-06T00:46:40;66.07;;;23.45;;
66974;SDS011;53903;51.464;-2.584;2022-11-06T00:49:05;72.93;;;27.80;;
66974;SDS011;53903;51.464;-2.584;2022-11-06T00:51:32;25.00;;;14.27;;
66974;SDS011;53903;51.464;-2.584;2022-11-06T00:54:00;46.63;;;16.85;;
66974;SDS011;53903;51.464;-2.584;2022-11-06T00:56:26;70.05;;;25.25;;
66974;SDS011;53903;51.464;-2.584;2022-11-06T00:58:52;64.40;;;25.10;;
66974;SDS011;53903;51.464;-2.584;2022-11-06T01:01:28;57.88;;;23.73;;
66974;SDS011;53903;51.464;-2.584;2022-11-06T01:03:58;52.63;;;22.00;;
66974;SDS011;53903;51.464;-2.584;2022-11-06T01:06:28;55.30;;;23.73;;
66974;SDS011;53903;51.464;-2.584;2022-11-06T01:08:55;70.78;;;26.25;;
66974;SDS011;53903;51.464;-2.584;2022-11-06T01:11:25;70.13;;;29.75;;
66974;SDS011;53903;51.464;-2.584;2022-11-06T01:13:51;59.85;;;25.80;;
66974;SDS011;53903;51.464;-2.584;2022-11-06T01:16:19;69.00;;;27.80;;
66974;SDS011;53903;51.464;-2.584;2022-11-06T01:18:45;70.25;;;30.60;;
66974;SDS011;53903;51.464;-2.584;2022-11-06T01:21:12;65.57;;;27.88;;
66974;SDS011;53903;51.464;-2.584;2022-11-06T01:23:39;62.22;;;26.58;;
66974;SDS011;53903;51.464;-2.584;2022-11-06T01:26:05;65.07;;;25.85;;
66974;SDS011;53903;51.464;-2.584;2022-11-06T01:28:32;78.05;;;28.73;;
66974;SDS011;53903;51.464;-2.584;2022-11-06T01:31:11;51.92;;;19.95;;
66974;SDS011;53903;51.464;-2.584;2022-11-06T01:33:38;68.25;;;26.65;;
66974;SDS011;53903;51.464;-2.584;2022-11-06T01:36:03;82.15;;;27.85;;
66974;SDS011;53903;51.464;-2.584;2022-11-06T01:38:29;90.40;;;34.10;;
66974;SDS011;53903;51.464;-2.584;2022-11-06T01:40:55;94.75;;;35.67;;
66974;SDS011;53903;51.464;-2.584;2022-11-06T01:43:21;89.85;;;34.90;;
66974;SDS011;53903;51.464;-2.584;2022-11-06T01:45:48;90.68;;;33.42;;
66974;SDS011;53903;51.464;-2.584;2022-11-06T01:48:16;86.15;;;31.30;;
66974;SDS011;53903;51.464;-2.584;2022-11-06T01:50:45;78.07;;;27.48;;
66974;SDS011;53903;51.464;-2.584;2022-11-06T01:53:14;62.33;;;24.52;;
66974;SDS011;53903;51.464;-2.584;2022-11-06T01:55:44;68.15;;;26.67;;
66974;SDS011;53903;51.464;-2.584;2022-11-06T01:58:11;47.22;;;19.20;;
66974;SDS011;53903;51.464;-2.584;2022-11-06T02:00:38;64.70;;;20.20;;
66974;SDS011;53903;51.464;-2.584;2022-11-06T02:03:04;26.90;;;13.80;;
66974;SDS011;53903;51.464;-2.584;2022-11-06T02:05:30;37.25;;;15.82;;
66974;SDS011;53903;51.464;-2.584;2022-11-06T02:07:55;40.28;;;14.95;;
66974;SDS011;53903;51.464;-2.584;2022-11-06T02:10:21;22.60;;;10.57;;
66974;SDS011;53903;51.464;-2.584;2022-11-06T02:13:06;43.35;;;16.08;;
66974;SDS011;53903;51.464;-2.584;2022-11-06T02:24:35;46.88;;;18.02;;
66974;SDS011;53903;51.464;-2.584;2022-11-06T02:27:23;11.88;;;5.70;;
66974;SDS011;53903;51.464;-2.584;2022-11-06T02:32:25;48.55;;;17.33;;
66974;SDS011;53903;51.464;-2.584;2022-11-06T02:34:57;42.05;;;17.10;;
66974;SDS011;53903;51.464;-2.584;2022-11-06T02:37:28;42.25;;;16.33;;
66974;SDS011;53903;51.464;-2.584;2022-11-06T02:39:57;39.00;;;15.00;;
66974;SDS011;53903;51.464;-2.584;2022-11-06T02:42:24;38.63;;;14.55;;
66974;SDS011;53903;51.464;-2.584;2022-11-06T02:44:50;43.78;;;14.52;;
66974;SDS011;53903;51.464;-2.584;2022-11-06T02:47:17;55.22;;;19.42;;
66974;SDS011;53903;51.464;-2.584;2022-11-06T02:49:45;39.75;;;15.32;;
66974;SDS011;53903;51.464;-2.584;2022-11-06T02:52:15;33.95;;;12.52;;
66974;SDS011;53903;51.464;-2.584;2022-11-06T02:54:46;33.55;;;13.75;;
66974;SDS011;53903;51.464;-2.584;2022-11-06T02:57:15;33.13;;;13.73;;
66974;SDS011;53903;51.464;-2.584;2022-11-06T02:59:53;43.33;;;16.38;;
66974;SDS011;53903;51.464;-2.584;2022-11-06T03:02:25;50.67;;;17.42;;
66974;SDS011;53903;51.464;-2.584;2022-11-06T03:05:01;35.63;;;15.00;;
66974;SDS011;53903;51.464;-2.584;2022-11-06T03:07:32;46.05;;;21.70;;
66974;SDS011;53903;51.464;-2.584;2022-11-06T03:10:01;73.22;;;26.95;;
66974;SDS011;53903;51.464;-2.584;2022-11-06T03:15:57;15.93;;;4.85;;
66974;SDS011;53903;51.464;-2.584;2022-11-06T03:18:09;5.40;;;4.85;;
66974;SDS011;53903;51.464;-2.584;2022-11-06T03:20:41;6.38;;;3.83;;
66974;SDS011;53903;51.464;-2.584;2022-11-06T03:23:15;21.00;;;9.57;;
66974;SDS011;53903;51.464;-2.584;2022-11-06T03:28:42;34.58;;;17.30;;
66974;SDS011;53903;51.464;-2.584;2022-11-06T03:31:14;33.80;;;16.75;;
66974;SDS011;53903;51.464;-2.584;2022-11-06T03:33:54;33.97;;;17.30;;
66974;SDS011;53903;51.464;-2.584;2022-11-06T03:36:44;38.47;;;16.63;;
66974;SDS011;53903;51.464;-2.584;2022-11-06T03:39:10;35.42;;;13.50;;
66974;SDS011;53903;51.464;-2.584;2022-11-06T03:41:43;34.13;;;13.70;;
66974;SDS011;53903;51.464;-2.584;2022-11-06T03:44:23;34.55;;;13.18;;
66974;SDS011;53903;51.464;-2.584;2022-11-06T03:47:00;28.75;;;16.05;;
66974;SDS011;53903;51.464;-2.584;2022-11-06T03:49:29;41.45;;;16.20;;
66974;SDS011;53903;51.464;-2.584;2022-11-06T03:52:11;37.85;;;14.80;;
66974;SDS011;53903;51.464;-2.584;2022-11-06T03:54:41;33.47;;;11.27;;
66974;SDS011;53903;51.464;-2.584;2022-11-06T03:57:16;34.75;;;12.27;;
66974;SDS011;53903;51.464;-2.584;2022-11-06T03:59:49;15.10;;;4.75;;
66974;SDS011;53903;51.464;-2.584;2022-11-06T04:02:16;14.25;;;9.32;;
66974;SDS011;53903;51.464;-2.584;2022-11-06T04:04:50;22.90;;;8.05;;
66974;SDS011;53903;51.464;-2.584;2022-11-06T04:07:36;21.40;;;6.18;;
66974;SDS011;53903;51.464;-2.584;2022-11-06T04:10:05;9.05;;;5.15;;
66974;SDS011;53903;51.464;-2.584;2022-11-06T04:12:52;19.98;;;8.98;;
66974;SDS011;53903;51.464;-2.584;2022-11-06T04:15:56;27.33;;;10.65;;
66974;SDS011;53903;51.464;-2.584;2022-11-06T04:18:21;33.85;;;11.77;;
66974;SDS011;53903;51.464;-2.584;2022-11-06T04:20:52;10.27;;;6.18;;
66974;SDS011;53903;51.464;-2.584;2022-11-06T04:24:41;16.45;;;7.63;;
66974;SDS011;53903;51.464;-2.584;2022-11-06T04:27:13;9.52;;;4.80;;
66974;SDS011;53903;51.464;-2.584;2022-11-06T04:29:54;6.72;;;2.85;;
66974;SDS011;53903;51.464;-2.584;2022-11-06T04:42:41;26.95;;;11.57;;
66974;SDS011;53903;51.464;-2.584;2022-11-06T04:45:13;27.58;;;12.27;;
66974;SDS011;53903;51.464;-2.584;2022-11-06T04:47:42;12.55;;;6.95;;
66974;SDS011;53903;51.464;-2.584;2022-11-06T04:50:08;13.68;;;5.78;;
66974;SDS011;53903;51.464;-2.584;2022-11-06T04:52:35;20.67;;;11.00;;
66974;SDS011;53903;51.464;-2.584;2022-11-06T04:55:01;28.60;;;10.23;;
66974;SDS011;53903;51.464;-2.584;2022-11-06T04:57:27;13.27;;;6.70;;
66974;SDS011;53903;51.464;-2.584;2022-11-06T04:59:52;18.00;;;6.85;;
66974;SDS011;53903;51.464;-2.584;2022-11-06T05:02:18;8.50;;;4.50;;
66974;SDS011;53903;51.464;-2.584;2022-11-06T05:04:43;6.90;;;4.35;;
66974;SDS011;53903;51.464;-2.584;2022-11-06T05:07:12;3.22;;;2.95;;
66974;SDS011;53903;51.464;-2.584;2022-11-06T05:09:38;4.07;;;1.75;;
66974;SDS011;53903;51.464;-2.584;2022-11-06T05:12:04;11.43;;;5.07;;
66974;SDS011;53903;51.464;-2.584;2022-11-06T05:14:29;12.90;;;4.82;;
66974;SDS011;53903;51.464;-2.584;2022-11-06T05:16:56;20.98;;;7.43;;
66974;SDS011;53903;51.464;-2.584;2022-11-06T05:19:21;6.93;;;4.28;;
66974;SDS011;53903;51.464;-2.584;2022-11-06T05:21:47;10.98;;;5.47;;
66974;SDS011;53903;51.464;-2.584;2022-11-06T05:24:30;3.08;;;2.45;;
66974;SDS011;53903;51.464;-2.584;2022-11-06T05:26:56;3.67;;;3.38;;
66974;SDS011;53903;51.464;-2.584;2022-11-06T05:29:21;1.30;;;1.13;;
66974;SDS011;53903;51.464;-2.584;2022-11-06T05:31:47;10.70;;;5.07;;
66974;SDS011;53903;51.464;-2.584;2022-11-06T05:34:12;9.10;;;3.72;;
66974;SDS011;53903;51.464;-2.584;2022-11-06T05:36:37;6.78;;;4.35;;
66974;SDS011;53903;51.464;-2.584;2022-11-06T05:39:03;9.10;;;5.50;;
66974;SDS011;53903;51.464;-2.584;2022-11-06T05:41:28;4.57;;;4.03;;
66974;SDS011;53903;51.464;-2.584;2022-11-06T05:43:53;10.05;;;3.97;;
66974;SDS011;53903;51.464;-2.584;2022-11-06T05:46:19;2.50;;;2.13;;
66974;SDS011;53903;51.464;-2.584;2022-11-06T05:48:44;3.63;;;2.65;;
66974;SDS011;53903;51.464;-2.584;2022-11-06T05:51:09;14.45;;;2.95;;
66974;SDS011;53903;51.464;-2.584;2022-11-06T05:53:35;0.90;;;0.88;;
66974;SDS011;53903;51.464;-2.584;2022-11-06T05:56:01;2.17;;;1.60;;
66974;SDS011;53903;51.464;-2.584;2022-11-06T05:58:27;4.10;;;0.55;;
66974;SDS011;53903;51.464;-2.584;2022-11-06T06:00:55;4.63;;;4.18;;
66974;SDS011;53903;51.464;-2.584;2022-11-06T06:03:21;0.65;;;0.65;;
66974;SDS011;53903;51.464;-2.584;2022-11-06T06:05:46;0.00;;;0.00;;
66974;SDS011;53903;51.464;-2.584;2022-11-06T06:08:12;3.20;;;1.45;;
66974;SDS011;53903;51.464;-2.584;2022-11-06T06:10:41;0.55;;;0.45;;
66974;SDS011;53903;51.464;-2.584;2022-11-06T06:13:10;0.20;;;0.20;;
66974;SDS011;53903;51.464;-2.584;2022-11-06T06:15:39;0.10;;;0.10;;
66974;SDS011;53903;51.464;-2.584;2022-11-06T06:18:05;0.47;;;0.17;;
66974;SDS011;53903;51.464;-2.584;2022-11-06T06:20:31;0.30;;;0.30;;
66974;SDS011;53903;51.464;-2.584;2022-11-06T06:22:57;0.30;;;0.30;;
66974;SDS011;53903;51.464;-2.584;2022-11-06T06:25:23;0.45;;;0.45;;
66974;SDS011;53903;51.464;-2.584;2022-11-06T06:27:49;0.47;;;0.47;;
66974;SDS011;53903;51.464;-2.584;2022-11-06T06:30:15;14.23;;;3.65;;
66974;SDS011;53903;51.464;-2.584;2022-11-06T06:32:40;1.77;;;0.75;;
66974;SDS011;53903;51.464;-2.584;2022-11-06T06:35:06;0.20;;;0.20;;
66974;SDS011;53903;51.464;-2.584;2022-11-06T06:37:32;0.15;;;0.15;;
66974;SDS011;53903;51.464;-2.584;2022-11-06T06:39:57;0.00;;;0.00;;
66974;SDS011;53903;51.464;-2.584;2022-11-06T06:42:22;2.60;;;1.38;;
66974;SDS011;53903;51.464;-2.584;2022-11-06T06:44:48;0.38;;;0.35;;
66974;SDS011;53903;51.464;-2.584;2022-11-06T06:47:13;3.03;;;2.80;;
66974;SDS011;53903;51.464;-2.584;2022-11-06T06:49:42;6.63;;;6.15;;
66974;SDS011;53903;51.464;-2.584;2022-11-06T06:52:08;0.30;;;0.28;;
66974;SDS011;53903;51.464;-2.584;2022-11-06T06:54:34;0.00;;;0.00;;
66974;SDS011;53903;51.464;-2.584;2022-11-06T06:56:59;0.00;;;0.00;;
66974;SDS011;53903;51.464;-2.584;2022-11-06T06:59:26;1.02;;;0.95;;
66974;SDS011;53903;51.464;-2.584;2022-11-06T07:01:51;0.20;;;0.20;;
66974;SDS011;53903;51.464;-2.584;2022-11-06T07:04:17;0.85;;;0.85;;
66974;SDS011;53903;51.464;-2.584;2022-11-06T07:06:42;1.98;;;1.38;;
66974;SDS011;53903;51.464;-2.584;2022-11-06T07:09:08;0.20;;;0.20;;
66974;SDS011;53903;51.464;-2.584;2022-11-06T07:11:33;3.15;;;2.60;;
66974;SDS011;53903;51.464;-2.584;2022-11-06T07:13:58;0.00;;;0.00;;
66974;SDS011;53903;51.464;-2.584;2022-11-06T07:16:24;0.03;;;0.03;;
66974;SDS011;53903;51.464;-2.584;2022-11-06T07:18:51;0.10;;;0.10;;
66974;SDS011;53903;51.464;-2.584;2022-11-06T07:21:17;0.20;;;0.20;;
66974;SDS011;53903;51.464;-2.584;2022-11-06T07:23:42;2.42;;;1.23;;
66974;SDS011;53903;51.464;-2.584;2022-11-06T07:26:08;0.32;;;0.32;;
66974;SDS011;53903;51.464;-2.584;2022-11-06T07:28:33;0.00;;;0.00;;
66974;SDS011;53903;51.464;-2.584;2022-11-06T07:30:59;0.52;;;0.52;;
66974;SDS011;53903;51.464;-2.584;2022-11-06T07:33:25;0.40;;;0.40;;
66974;SDS011;53903;51.464;-2.584;2022-11-06T07:35:50;2.45;;;2.25;;
66974;SDS011;53903;51.464;-2.584;2022-11-06T07:38:16;0.63;;;0.60;;
66974;SDS011;53903;51.464;-2.584;2022-11-06T07:40:41;1.55;;;1.45;;
66974;SDS011;53903;51.464;-2.584;2022-11-06T07:43:07;1.75;;;1.10;;
66974;SDS011;53903;51.464;-2.584;2022-11-06T07:45:33;0.20;;;0.20;;
66974;SDS011;53903;51.464;-2.584;2022-11-06T07:47:59;0.05;;;0.03;;
66974;SDS011;53903;51.464;-2.584;2022-11-06T07:50:25;0.45;;;0.45;;
66974;SDS011;53903;51.464;-2.584;2022-11-06T07:52:50;0.38;;;0.35;;
66974;SDS011;53903;51.464;-2.584;2022-11-06T07:55:16;3.45;;;3.25;;
66974;SDS011;53903;51.464;-2.584;2022-11-06T07:57:41;0.00;;;0.00;;
66974;SDS011;53903;51.464;-2.584;2022-11-06T08:00:07;0.00;;;0.00;;
66974;SDS011;53903;51.464;-2.584;2022-11-06T08:02:33;1.75;;;0.75;;
66974;SDS011;53903;51.464;-2.584;2022-11-06T08:04:58;0.52;;;0.47;;
66974;SDS011;53903;51.464;-2.584;2022-11-06T08:07:24;1.73;;;1.45;;
66974;SDS011;53903;51.464;-2.584;2022-11-06T08:09:49;1.10;;;1.05;;
66974;SDS011;53903;51.464;-2.584;2022-11-06T08:12:14;3.72;;;3.50;;
66974;SDS011;53903;51.464;-2.584;2022-11-06T08:14:40;5.15;;;4.75;;
66974;SDS011;53903;51.464;-2.584;2022-11-06T08:17:05;0.00;;;0.00;;
66974;SDS011;53903;51.464;-2.584;2022-11-06T08:19:31;1.92;;;1.80;;
66974;SDS011;53903;51.464;-2.584;2022-11-06T08:21:56;0.00;;;0.00;;
66974;SDS011;53903;51.464;-2.584;2022-11-06T08:24:21;4.18;;;3.85;;
66974;SDS011;53903;51.464;-2.584;2022-11-06T08:26:47;0.00;;;0.00;;
66974;SDS011;53903;51.464;-2.584;2022-11-06T08:29:12;12.90;;;6.18;;
66974;SDS011;53903;51.464;-2.584;2022-11-06T08:31:38;1.95;;;1.42;;
66974;SDS011;53903;51.464;-2.584;2022-11-06T08:34:03;0.00;;;0.00;;
66974;SDS011;53903;51.464;-2.584;2022-11-06T08:36:29;0.30;;;0.30;;
66974;SDS011;53903;51.464;-2.584;2022-11-06T08:38:54;0.00;;;0.00;;
66974;SDS011;53903;51.464;-2.584;2022-11-06T08:41:20;0.00;;;0.00;;
66974;SDS011;53903;51.464;-2.584;2022-11-06T08:43:49;0.38;;;0.38;;
66974;SDS011;53903;51.464;-2.584;2022-11-06T08:46:15;0.88;;;0.85;;
66974;SDS011;53903;51.464;-2.584;2022-11-06T08:48:41;0.52;;;0.52;;
66974;SDS011;53903;51.464;-2.584;2022-11-06T08:51:06;2.08;;;1.98;;
66974;SDS011;53903;51.464;-2.584;2022-11-06T08:53:31;1.85;;;0.73;;
66974;SDS011;53903;51.464;-2.584;2022-11-06T08:55:57;0.00;;;0.00;;
66974;SDS011;53903;51.464;-2.584;2022-11-06T08:58:22;0.00;;;0.00;;
66974;SDS011;53903;51.464;-2.584;2022-11-06T09:00:48;1.17;;;1.17;;
66974;SDS011;53903;51.464;-2.584;2022-11-06T09:03:14;0.08;;;0.08;;
66974;SDS011;53903;51.464;-2.584;2022-11-06T09:05:41;0.17;;;0.17;;
66974;SDS011;53903;51.464;-2.584;2022-11-06T09:08:08;2.08;;;1.20;;
66974;SDS011;53903;51.464;-2.584;2022-11-06T09:10:35;0.43;;;0.43;;
66974;SDS011;53903;51.464;-2.584;2022-11-06T09:13:01;0.28;;;0.28;;
66974;SDS011;53903;51.464;-2.584;2022-11-06T09:15:27;0.55;;;0.55;;
66974;SDS011;53903;51.464;-2.584;2022-11-06T09:17:52;0.03;;;0.03;;
66974;SDS011;53903;51.464;-2.584;2022-11-06T09:20:19;0.00;;;0.00;;
66974;SDS011;53903;51.464;-2.584;2022-11-06T09:22:46;0.00;;;0.00;;
66974;SDS011;53903;51.464;-2.584;2022-11-06T09:25:11;2.17;;;0.70;;
66974;SDS011;53903;51.464;-2.584;2022-11-06T09:27:41;0.15;;;0.15;;
66974;SDS011;53903;51.464;-2.584;2022-11-06T09:30:10;0.10;;;0.10;;
66974;SDS011;53903;51.464;-2.584;2022-11-06T09:32:37;0.20;;;0.20;;
66974;SDS011;53903;51.464;-2.584;2022-11-06T09:35:02;0.00;;;0.00;;
66974;SDS011;53903;51.464;-2.584;2022-11-06T09:37:28;3.58;;;1.92;;
66974;SDS011;53903;51.464;-2.584;2022-11-06T09:39:54;0.00;;;0.00;;
66974;SDS011;53903;51.464;-2.584;2022-11-06T09:42:26;1.40;;;0.90;;
66974;SDS011;53903;51.464;-2.584;2022-11-06T09:47:33;0.00;;;0.00;;
66974;SDS011;53903;51.464;-2.584;2022-11-06T09:50:00;0.20;;;0.20;;
66974;SDS011;53903;51.464;-2.584;2022-11-06T09:52:48;0.00;;;0.00;;
66974;SDS011;53903;51.464;-2.584;2022-11-06T09:55:19;0.08;;;0.08;;
66974;SDS011;53903;51.464;-2.584;2022-11-06T09:57:47;1.27;;;0.63;;
66974;SDS011;53903;51.464;-2.584;2022-11-06T10:00:15;0.00;;;0.00;;
66974;SDS011;53903;51.464;-2.584;2022-11-06T10:05:24;1.88;;;0.75;;
66974;SDS011;53903;51.464;-2.584;2022-11-06T10:07:53;0.00;;;0.00;;
66974;SDS011;53903;51.464;-2.584;2022-11-06T10:10:23;0.00;;;0.00;;
66974;SDS011;53903;51.464;-2.584;2022-11-06T10:16:29;0.57;;;0.40;;
66974;SDS011;53903;51.464;-2.584;2022-11-06T10:21:11;0.00;;;0.00;;
66974;SDS011;53903;51.464;-2.584;2022-11-06T10:23:47;0.00;;;0.00;;
66974;SDS011;53903;51.464;-2.584;2022-11-06T10:26:19;0.28;;;0.28;;
66974;SDS011;53903;51.464;-2.584;2022-11-06T10:34:21;0.00;;;0.00;;
66974;SDS011;53903;51.464;-2.584;2022-11-06T10:36:53;0.00;;;0.00;;
66974;SDS011;53903;51.464;-2.584;2022-11-06T10:39:27;1.55;;;0.68;;
66974;SDS011;53903;51.464;-2.584;2022-11-06T10:41:59;11.60;;;0.98;;
66974;SDS011;53903;51.464;-2.584;2022-11-06T10:44:35;0.10;;;0.10;;
66974;SDS011;53903;51.464;-2.584;2022-11-06T10:47:03;0.00;;;0.00;;
66974;SDS011;53903;51.464;-2.584;2022-11-06T10:49:35;0.20;;;0.20;;
66974;SDS011;53903;51.464;-2.584;2022-11-06T11:00:05;0.00;;;0.00;;
66974;SDS011;53903;51.464;-2.584;2022-11-06T11:02:36;0.10;;;0.10;;
66974;SDS011;53903;51.464;-2.584;2022-11-06T11:05:39;11.52;;;1.58;;
66974;SDS011;53903;51.464;-2.584;2022-11-06T11:08:02;2.97;;;0.70;;
66974;SDS011;53903;51.464;-2.584;2022-11-06T11:10:29;1.83;;;0.73;;
66974;SDS011;53903;51.464;-2.584;2022-11-06T11:12:57;3.05;;;0.93;;
66974;SDS011;53903;51.464;-2.584;2022-11-06T11:15:25;0.17;;;0.17;;
66974;SDS011;53903;51.464;-2.584;2022-11-06T11:20:36;2.65;;;1.00;;
66974;SDS011;53903;51.464;-2.584;2022-11-06T11:23:17;8.02;;;1.77;;
66974;SDS011;53903;51.464;-2.584;2022-11-06T11:25:45;6.00;;;1.42;;
66974;SDS011;53903;51.464;-2.584;2022-11-06T11:28:25;2.28;;;1.00;;
66974;SDS011;53903;51.464;-2.584;2022-11-06T11:31:01;3.97;;;1.23;;
66974;SDS011;53903;51.464;-2.584;2022-11-06T11:33:30;0.40;;;0.30;;
66974;SDS011;53903;51.464;-2.584;2022-11-06T11:35:56;4.35;;;1.27;;
66974;SDS011;53903;51.464;-2.584;2022-11-06T11:38:21;1.88;;;1.02;;
66974;SDS011;53903;51.464;-2.584;2022-11-06T11:40:48;6.95;;;1.40;;
66974;SDS011;53903;51.464;-2.584;2022-11-06T11:53:56;3.67;;;0.75;;
66974;SDS011;53903;51.464;-2.584;2022-11-06T11:56:30;11.68;;;1.02;;
66974;SDS011;53903;51.464;-2.584;2022-11-06T11:58:56;3.58;;;0.55;;
66974;SDS011;53903;51.464;-2.584;2022-11-06T12:01:33;0.63;;;0.50;;
66974;SDS011;53903;51.464;-2.584;2022-11-06T12:04:05;1.05;;;0.40;;
66974;SDS011;53903;51.464;-2.584;2022-11-06T12:06:32;6.53;;;0.83;;
66974;SDS011;53903;51.464;-2.584;2022-11-06T12:08:58;0.93;;;0.15;;
66974;SDS011;53903;51.464;-2.584;2022-11-06T12:11:27;4.47;;;0.68;;
66974;SDS011;53903;51.464;-2.584;2022-11-06T12:16:58;1.48;;;1.15;;
66974;SDS011;53903;51.464;-2.584;2022-11-06T12:19:27;0.82;;;0.70;;
66974;SDS011;53903;51.464;-2.584;2022-11-06T12:21:56;2.13;;;0.70;;
66974;SDS011;53903;51.464;-2.584;2022-11-06T12:24:26;0.00;;;0.00;;
66974;SDS011;53903;51.464;-2.584;2022-11-06T12:27:13;0.85;;;0.70;;
66974;SDS011;53903;51.464;-2.584;2022-11-06T12:29:48;0.00;;;0.00;;
66974;SDS011;53903;51.464;-2.584;2022-11-06T12:35:09;0.00;;;0.00;;
66974;SDS011;53903;51.464;-2.584;2022-11-06T12:37:47;0.47;;;0.13;;
66974;SDS011;53903;51.464;-2.584;2022-11-06T12:40:36;0.98;;;0.40;;
66974;SDS011;53903;51.464;-2.584;2022-11-06T12:43:12;0.00;;;0.00;;
66974;SDS011;53903;51.464;-2.584;2022-11-06T12:51:45;0.00;;;0.00;;
66974;SDS011;53903;51.464;-2.584;2022-11-06T13:05:22;1.00;;;0.30;;
66974;SDS011;53903;51.464;-2.584;2022-11-06T13:08:14;0.00;;;0.00;;
66974;SDS011;53903;51.464;-2.584;2022-11-06T13:18:52;0.00;;;0.00;;
66974;SDS011;53903;51.464;-2.584;2022-11-06T13:21:22;5.60;;;0.95;;
66974;SDS011;53903;51.464;-2.584;2022-11-06T13:23:50;0.40;;;0.40;;
66974;SDS011;53903;51.464;-2.584;2022-11-06T13:29:04;0.15;;;0.10;;
66974;SDS011;53903;51.464;-2.584;2022-11-06T13:34:03;0.15;;;0.15;;
66974;SDS011;53903;51.464;-2.584;2022-11-06T13:36:29;1.10;;;0.57;;
66974;SDS011;53903;51.464;-2.584;2022-11-06T13:41:25;0.28;;;0.28;;
66974;SDS011;53903;51.464;-2.584;2022-11-06T13:44:01;0.00;;;0.00;;
66974;SDS011;53903;51.464;-2.584;2022-11-06T13:51:52;0.10;;;0.10;;
66974;SDS011;53903;51.464;-2.584;2022-11-06T13:54:38;0.80;;;0.05;;
66974;SDS011;53903;51.464;-2.584;2022-11-06T14:03:26;1.88;;;0.77;;
66974;SDS011;53903;51.464;-2.584;2022-11-06T14:08:44;2.47;;;0.30;;
66974;SDS011;53903;51.464;-2.584;2022-11-06T14:11:32;1.75;;;0.40;;
66974;SDS011;53903;51.464;-2.584;2022-11-06T14:14:00;1.05;;;0.52;;
66974;SDS011;53903;51.464;-2.584;2022-11-06T14:16:28;0.10;;;0.10;;
66974;SDS011;53903;51.464;-2.584;2022-11-06T14:18:56;0.10;;;0.10;;
66974;SDS011;53903;51.464;-2.584;2022-11-06T14:23:52;0.38;;;0.30;;
66974;SDS011;53903;51.464;-2.584;2022-11-06T14:29:41;0.00;;;0.00;;
66974;SDS011;53903;51.464;-2.584;2022-11-06T14:32:10;0.00;;;0.00;;
66974;SDS011;53903;51.464;-2.584;2022-11-06T14:34:48;0.67;;;0.67;;
66974;SDS011;53903;51.464;-2.584;2022-11-06T14:42:38;0.17;;;0.10;;
66974;SDS011;53903;51.464;-2.584;2022-11-06T14:52:43;7.05;;;1.00;;
66974;SDS011;53903;51.464;-2.584;2022-11-06T14:57:53;0.93;;;0.73;;
66974;SDS011;53903;51.464;-2.584;2022-11-06T15:03:04;0.20;;;0.20;;
66974;SDS011;53903;51.464;-2.584;2022-11-06T15:05:49;4.95;;;1.17;;
66974;SDS011;53903;51.464;-2.584;2022-11-06T15:11:42;3.70;;;0.82;;
66974;SDS011;53903;51.464;-2.584;2022-11-06T15:17:08;0.80;;;0.57;;
66974;SDS011;53903;51.464;-2.584;2022-11-06T15:19:19;0.30;;;0.20;;
66974;SDS011;53903;51.464;-2.584;2022-11-06T15:21:49;0.55;;;0.50;;
66974;SDS011;53903;51.464;-2.584;2022-11-06T15:24:24;4.88;;;1.17;;
66974;SDS011;53903;51.464;-2.584;2022-11-06T15:26:53;0.00;;;0.00;;
66974;SDS011;53903;51.464;-2.584;2022-11-06T15:29:25;4.38;;;1.83;;
66974;SDS011;53903;51.464;-2.584;2022-11-06T15:31:54;1.10;;;0.80;;
66974;SDS011;53903;51.464;-2.584;2022-11-06T15:34:31;5.65;;;1.05;;
66974;SDS011;53903;51.464;-2.584;2022-11-06T15:42:13;0.10;;;0.08;;
66974;SDS011;53903;51.464;-2.584;2022-11-06T15:44:41;1.98;;;1.15;;
66974;SDS011;53903;51.464;-2.584;2022-11-06T15:47:26;1.95;;;1.00;;
66974;SDS011;53903;51.464;-2.584;2022-11-06T15:52:36;0.00;;;0.00;;
66974;SDS011;53903;51.464;-2.584;2022-11-06T15:55:03;0.22;;;0.22;;
66974;SDS011;53903;51.464;-2.584;2022-11-06T15:57:28;3.13;;;0.80;;
66974;SDS011;53903;51.464;-2.584;2022-11-06T16:05:24;0.15;;;0.15;;
66974;SDS011;53903;51.464;-2.584;2022-11-06T16:07:51;1.98;;;0.22;;
66974;SDS011;53903;51.464;-2.584;2022-11-06T16:10:17;0.10;;;0.10;;
66974;SDS011;53903;51.464;-2.584;2022-11-06T16:12:44;0.28;;;0.15;;
66974;SDS011;53903;51.464;-2.584;2022-11-06T16:18:20;1.08;;;0.55;;
66974;SDS011;53903;51.464;-2.584;2022-11-06T16:23:32;2.83;;;1.23;;
66974;SDS011;53903;51.464;-2.584;2022-11-06T16:26:06;0.10;;;0.10;;
66974;SDS011;53903;51.464;-2.584;2022-11-06T16:28:34;0.47;;;0.20;;
66974;SDS011;53903;51.464;-2.584;2022-11-06T16:31:03;0.20;;;0.20;;
66974;SDS011;53903;51.464;-2.584;2022-11-06T16:33:31;2.00;;;0.38;;
66974;SDS011;53903;51.464;-2.584;2022-11-06T16:36:10;0.10;;;0.10;;
66974;SDS011;53903;51.464;-2.584;2022-11-06T16:38:43;2.03;;;0.73;;
66974;SDS011;53903;51.464;-2.584;2022-11-06T16:41:10;7.13;;;0.98;;
66974;SDS011;53903;51.464;-2.584;2022-11-06T16:49:44;4.15;;;1.10;;
66974;SDS011;53903;51.464;-2.584;2022-11-06T16:52:19;4.18;;;1.38;;
66974;SDS011;53903;51.464;-2.584;2022-11-06T16:54:47;3.03;;;1.42;;
66974;SDS011;53903;51.464;-2.584;2022-11-06T16:57:14;1.55;;;0.90;;
66974;SDS011;53903;51.464;-2.584;2022-11-06T16:59:42;3.65;;;0.93;;
66974;SDS011;53903;51.464;-2.584;2022-11-06T17:02:18;3.42;;;0.65;;
66974;SDS011;53903;51.464;-2.584;2022-11-06T17:04:45;0.45;;;0.25;;
66974;SDS011;53903;51.464;-2.584;2022-11-06T17:07:16;0.00;;;0.00;;
66974;SDS011;53903;51.464;-2.584;2022-11-06T17:09:43;0.00;;;0.00;;
66974;SDS011;53903;51.464;-2.584;2022-11-06T17:12:09;0.00;;;0.00;;
66974;SDS011;53903;51.464;-2.584;2022-11-06T17:14:35;0.32;;;0.32;;
66974;SDS011;53903;51.464;-2.584;2022-11-06T17:17:01;4.47;;;0.55;;
66974;SDS011;53903;51.464;-2.584;2022-11-06T17:19:27;1.15;;;0.65;;
66974;SDS011;53903;51.464;-2.584;2022-11-06T17:21:53;4.13;;;0.73;;
66974;SDS011;53903;51.464;-2.584;2022-11-06T17:24:19;0.43;;;0.43;;
66974;SDS011;53903;51.464;-2.584;2022-11-06T17:26:49;5.85;;;0.45;;
66974;SDS011;53903;51.464;-2.584;2022-11-06T17:29:15;4.43;;;1.52;;
66974;SDS011;53903;51.464;-2.584;2022-11-06T17:31:41;4.25;;;1.05;;